Monday, September 24, 2018, 5:22 PM EDT
Back to Local

KILG, Wilmington New Castle Co

Location: New Castle, DE, United States Lat: 39.667
Local Time: 5:22 PM EDT (21:22 GMT) Lon: -75.6
Time Zone: US/Eastern Elev: 78 ft

Show me the last for .
Show Decoded

2018-09-24 16:51 METAR KILG 242051Z 07010KT 10SM BKN021 OVC027 18/15 A3038 RMK AO2 RAB27E41
                 SLP288 P0000 60000 T01830150 55006 $ =
2018-09-24 15:58 METAR KILG 241958Z 08011KT 10SM OVC028 19/14 A3038 RMK AO2 T01890144 =
2018-09-24 15:51 METAR KILG 241951Z 07012KT 10SM OVC030 19/14 A3038 RMK AO2 SLP287 T01890144 =
2018-09-24 14:51 METAR KILG 241851Z 08015KT 10SM BKN032 OVC045 19/13 A3039 RMK AO2 SLP292
                 T01940133 =
2018-09-24 13:51 METAR KILG 241751Z 09012KT 10SM SCT024 BKN030 OVC047 19/15 A3040 RMK AO2 SLP294
                 60002 T01940150 10194 20172 58003 =
2018-09-24 13:17 METAR KILG 241717Z 08011KT 10SM SCT022 BKN028 OVC050 19/15 A3040 RMK AO2
                 T01890150 =
2018-09-24 12:51 METAR KILG 241651Z 07010G18KT 10SM FEW022 FEW031 OVC050 19/16 A3041 RMK AO2
                 SLP296 T01940156 =
2018-09-24 12:44 METAR KILG 241644Z 07011KT 10SM FEW018 SCT029 OVC050 19/16 A3041 RMK AO2
                 T01890156 =
2018-09-24 11:51 METAR KILG 241551Z 09013KT 10SM FEW015 BKN029 OVC050 18/16 A3041 RMK AO2 SLP297
                 T01830161 =
2018-09-24 10:51 METAR KILG 241451Z 06012KT 10SM SCT009 SCT013 OVC031 17/16 A3041 RMK AO2 RAE37
                 SLP297 P0001 60002 T01720161 51006 =
2018-09-24 10:45 METAR KILG 241445Z 07012KT 10SM SCT009 BKN022 OVC031 17/16 A3041 RMK AO2 RAE37
                 P0001 =
2018-09-24 10:13 METAR KILG 241413Z 06012KT 3SM -RA BR BKN005 OVC010 17/17 A3041 RMK AO2 P0001
                 T01720167 =
2018-09-24 09:58 METAR KILG 241358Z 05011KT 1 3/4SM R01/5500VP6000FT -RA BR OVC006 17/17 A3040
                 RMK AO2 CIG 004V010 P0000 T01720167 =
2018-09-24 09:51 METAR KILG 241351Z 05008KT 3SM -RA BR OVC006 17/17 A3040 RMK AO2 RAB10 CIG
                 004V008 SLP294 P0001 T01720167 =
2018-09-24 09:47 METAR KILG 241347Z 06007KT 3SM -RA BR BKN007 OVC011 17/17 A3040 RMK AO2 RAB10
                 CIG 004V008 P0001 =
2018-09-24 09:09 METAR KILG 241309Z 06009KT 2SM BR OVC009 17/16 A3039 RMK AO2 CIG 005V012
                 T01720161 =
2018-09-24 08:51 METAR KILG 241251Z 07007KT 6SM BR BKN007 OVC011 17/16 A3039 RMK AO2 SLP290
                 T01720161 =
2018-09-24 08:24 METAR KILG 241224Z 08007KT 10SM BKN007 BKN011 OVC024 17/16 A3037 RMK AO2
                 T01720161 $ =
2018-09-24 07:58 METAR KILG 241158Z 08008KT 10SM BKN011 OVC024 17/16 A3037 RMK AO2 T01720156 $ =
2018-09-24 07:51 METAR KILG 241151Z 07007KT 10SM SCT010 OVC023 17/16 A3036 RMK AO2 SLP282 60000
                 70079 T01720156 10172 20167 51023 $ =
2018-09-24 07:35 METAR KILG 241135Z 07008KT 10SM SCT010 OVC023 17/16 A3036 RMK AO2 T01670156 $ =
2018-09-24 06:54 METAR KILG 241054Z 07008KT 10SM BKN010 BKN014 OVC025 17/16 A3034 RMK AO2
                 T01670156 $ =
2018-09-24 06:51 METAR KILG 241051Z 06006KT 10SM SCT010 SCT014 OVC025 17/16 A3034 RMK AO2 RAE07
                 SLP274 P0000 T01670156 $ =
2018-09-24 06:15 METAR KILG 241015Z AUTO 07006KT 10SM BKN011 BKN028 OVC043 17/16 A3033 RMK AO2
                 RAE07 P0000 T01670156 $ =
2018-09-24 05:51 METAR KILG 240951Z AUTO 05008KT 10SM -RA FEW012 OVC028 17/16 A3032 RMK AO2 RAB39
                 SLP268 P0000 T01670156 $ =
2018-09-24 05:26 METAR KILG 240926Z AUTO 06008KT 10SM FEW010 BKN028 OVC038 17/16 A3031 RMK AO2
                 T01670156 $ =
2018-09-24 05:00 METAR KILG 240900Z AUTO 06007KT 10SM FEW011 SCT029 OVC036 17/16 A3030 RMK AO2
                 T01670156 $ =
2018-09-24 04:51 METAR KILG 240851Z AUTO 06007KT 10SM FEW011 BKN029 OVC035 17/16 A3030 RMK AO2
                 SLP259 60000 T01670156 51005 $ =
2018-09-24 03:51 METAR KILG 240751Z AUTO 07009KT 10SM SCT008 BKN020 OVC028 17/16 A3029 RMK AO2
                 SLP257 T01670156 $ =
2018-09-24 03:48 METAR KILG 240748Z AUTO 06008KT 10SM FEW008 BKN020 OVC028 17/16 A3029 RMK AO2 $
                 =
2018-09-24 03:21 METAR KILG 240721Z AUTO 05008KT 10SM SCT009 BKN014 OVC030 17/16 A3029 RMK AO2
                 T01670156 $ =
2018-09-24 02:51 METAR KILG 240651Z AUTO 06008KT 10SM FEW009 OVC030 17/16 A3028 RMK AO2 RAE10
                 SLP254 P0000 T01670156 $ =
2018-09-24 02:46 METAR KILG 240646Z AUTO 05009KT 10SM FEW009 OVC030 17/16 A3028 RMK AO2 RAE10
                 P0000 $ =
2018-09-24 02:32 METAR KILG 240632Z AUTO 06009KT 10SM SCT010 SCT021 OVC030 17/16 A3029 RMK AO2
                 RAE10 P0000 T01670156 $ =
2018-09-24 01:51 METAR KILG 240551Z AUTO 06007KT 10SM -RA OVC027 17/16 A3029 RMK AO2 SLP256 P0003
                 60040 T01670156 10167 20156 51004 $ =
2018-09-24 00:59 METAR KILG 240459Z AUTO 07009KT 8SM RA SCT006 OVC018 17/16 A3028 RMK AO2 P0001
                 T01670156 $ =
2018-09-24 00:51 METAR KILG 240451Z AUTO 06007KT 10SM -RA BKN006 OVC018 17/16 A3028 RMK AO2
                 SLP254 P0005 T01670156 401720156 $ =
2018-09-23 23:51 METAR KILG 240351Z AUTO 04007KT 5SM RA BR OVC007 16/16 A3028 RMK AO2 SLP254
                 P0010 T01610156 $ =
2018-09-23 22:51 METAR KILG 240251Z AUTO 04008KT 6SM RA BR OVC009 16/16 A3028 RMK AO2 CIG 006V012
                 SLP252 P0008 60022 T01610156 51009 $ =
2018-09-23 21:51 METAR KILG 240151Z AUTO 02006KT 7SM -RA OVC006 16/16 A3027 RMK AO2 SLP249 P0006
                 T01610156 $ =
2018-09-23 21:05 METAR KILG 240105Z AUTO 03006KT 5SM RA BR BKN008 OVC022 16/15 A3026 RMK AO2
                 P0002 T01560150 $ =
2018-09-23 20:51 METAR KILG 240051Z 03007KT 5SM RA BR FEW009 OVC021 16/15 A3026 RMK AO2 SLP246
                 P0008 T01560150 $ =
2018-09-23 20:41 METAR KILG 240041Z 03007KT 6SM -RA BR OVC021 16/15 A3026 RMK AO2 P0007 T01560150
                 $ =
2018-09-23 19:51 METAR KILG 232351Z 04006KT 5SM RA BR BKN006 BKN011 OVC031 16/16 A3025 RMK AO2
                 SLP242 P0009 60025 T01610156 10172 20161 53008 $ =
2018-09-23 19:38 METAR KILG 232338Z 01005KT 5SM RA BR BKN009 BKN012 OVC026 16/16 A3024 RMK AO2
                 P0006 T01610156 $ =
2018-09-23 18:51 METAR KILG 232251Z 01006KT 10SM -RA FEW009 SCT017 OVC027 16/15 A3024 RMK AO2
                 SLP238 P0001 T01610150 $ =
2018-09-23 18:44 METAR KILG 232244Z 01007KT 10SM -RA SCT010 SCT017 OVC027 16/15 A3024 RMK AO2
                 P0001 T01610150 $ =
2018-09-23 18:29 METAR KILG 232229Z 02007KT 10SM -RA BKN010 BKN017 OVC060 17/16 A3023 RMK AO2
                 P0001 T01670156 $ =
2018-09-23 17:51 METAR KILG 232151Z 04004KT 10SM -RA BKN033 BKN048 OVC060 17/16 A3022 RMK AO2
                 SLP234 P0000 T01670161 =

Support USWX by starting your Amazon purchase here.